createdAt,value
2022-11-03T00:00:12.486Z,997.68
2022-11-03T00:01:07.924Z,997.64
2022-11-03T00:02:08.055Z,997.62
2022-11-03T00:03:08.418Z,997.61
2022-11-03T00:04:07.875Z,997.61
2022-11-03T00:05:07.859Z,997.66
2022-11-03T00:06:07.840Z,997.67
2022-11-03T00:07:07.830Z,997.70
2022-11-03T00:08:07.878Z,997.69
2022-11-03T00:09:07.788Z,997.67
2022-11-03T00:10:07.772Z,997.69
2022-11-03T00:11:07.755Z,997.67
2022-11-03T00:12:07.741Z,997.64
2022-11-03T00:13:07.916Z,997.64
2022-11-03T00:14:07.702Z,997.61
2022-11-03T00:15:07.682Z,997.65
2022-11-03T00:16:07.670Z,997.64
2022-11-03T00:17:07.649Z,997.59
2022-11-03T00:18:07.633Z,997.63
2022-11-03T00:19:07.617Z,997.61
2022-11-03T00:20:07.598Z,997.64
2022-11-03T00:21:07.584Z,997.64
2022-11-03T00:22:07.565Z,997.61
2022-11-03T00:23:07.907Z,997.59
2022-11-03T00:24:07.533Z,997.60
2022-11-03T00:25:07.513Z,997.60
2022-11-03T00:26:07.495Z,997.55
2022-11-03T00:27:07.478Z,997.52
2022-11-03T00:28:07.464Z,997.61
2022-11-03T00:29:07.443Z,997.54
2022-11-03T00:30:07.427Z,997.54
2022-11-03T00:31:07.408Z,997.54
2022-11-03T00:32:07.392Z,997.54
2022-11-03T00:33:07.611Z,997.54
2022-11-03T00:34:07.387Z,997.53
2022-11-03T00:35:07.338Z,997.50
2022-11-03T00:36:07.321Z,997.53
2022-11-03T00:37:07.303Z,997.51
2022-11-03T00:38:07.289Z,997.49
2022-11-03T00:39:07.270Z,997.50
2022-11-03T00:40:07.254Z,997.51
2022-11-03T00:41:07.234Z,997.50
2022-11-03T00:42:07.217Z,997.42
2022-11-03T00:43:07.632Z,997.42
2022-11-03T00:44:07.184Z,997.38
2022-11-03T00:45:07.165Z,997.34
2022-11-03T00:46:07.148Z,997.26
2022-11-03T00:47:07.130Z,997.30
2022-11-03T00:48:07.119Z,997.24
2022-11-03T00:49:07.095Z,997.23
2022-11-03T00:50:07.079Z,997.20
2022-11-03T00:51:07.061Z,997.12
2022-11-03T00:52:07.044Z,997.15
2022-11-03T00:53:07.490Z,997.11
2022-11-03T00:54:07.010Z,997.09
2022-11-03T00:55:06.988Z,997.07
2022-11-03T00:56:06.974Z,997.07
2022-11-03T00:57:06.955Z,997.11
2022-11-03T00:58:06.944Z,997.11
2022-11-03T00:59:06.927Z,997.07
2022-11-03T01:00:06.905Z,997.10
2022-11-03T01:01:06.937Z,997.12
2022-11-03T01:02:06.955Z,997.08
2022-11-03T01:03:07.209Z,997.02
2022-11-03T01:04:06.835Z,997.03
2022-11-03T01:05:06.817Z,997.01
2022-11-03T01:06:06.800Z,996.98
2022-11-03T01:07:06.782Z,996.96
2022-11-03T01:08:06.768Z,996.93
2022-11-03T01:09:06.754Z,996.90
2022-11-03T01:10:06.731Z,996.90
2022-11-03T01:11:06.717Z,996.90
2022-11-03T01:12:06.697Z,996.96
2022-11-03T01:13:07.073Z,996.90
2022-11-03T01:14:06.661Z,996.88
2022-11-03T01:15:06.641Z,996.86
2022-11-03T01:16:06.628Z,996.81
2022-11-03T01:17:06.624Z,996.85
2022-11-03T01:18:06.593Z,996.83
2022-11-03T01:19:06.573Z,996.82
2022-11-03T01:20:06.562Z,996.86
2022-11-03T01:21:06.537Z,996.89
2022-11-03T01:22:10.582Z,996.88
2022-11-03T01:23:06.817Z,996.90
2022-11-03T01:24:06.486Z,996.87
2022-11-03T01:25:06.468Z,996.90
2022-11-03T01:26:06.458Z,996.86
2022-11-03T01:27:06.441Z,996.87
2022-11-03T01:28:06.427Z,996.78
2022-11-03T01:29:06.400Z,996.81
2022-11-03T01:30:06.381Z,996.77
2022-11-03T01:31:06.366Z,996.78
2022-11-03T01:32:06.348Z,996.75
2022-11-03T01:33:06.535Z,996.74
2022-11-03T01:34:06.312Z,996.69
2022-11-03T01:35:06.301Z,996.70
2022-11-03T01:36:06.279Z,996.68
2022-11-03T01:37:06.278Z,996.68
2022-11-03T01:38:06.244Z,996.66
2022-11-03T01:39:06.238Z,996.64
2022-11-03T01:40:06.209Z,996.66
2022-11-03T01:41:06.193Z,996.58
2022-11-03T01:42:13.924Z,996.57
2022-11-03T01:44:10.127Z,996.56
2022-11-03T01:45:10.088Z,996.51
2022-11-03T01:47:14.062Z,996.52
2022-11-03T01:48:14.025Z,996.47
2022-11-03T01:50:17.984Z,996.43
2022-11-03T01:51:17.957Z,996.42
2022-11-03T01:53:10.853Z,996.44
2022-11-03T01:54:10.816Z,996.43
2022-11-03T01:55:10.803Z,996.41
2022-11-03T01:56:10.784Z,996.43
2022-11-03T01:57:10.767Z,996.39
2022-11-03T01:58:10.746Z,996.39
2022-11-03T01:59:10.732Z,996.38
2022-11-03T02:00:10.712Z,996.36
2022-11-03T02:01:10.849Z,996.36
2022-11-03T02:02:10.860Z,996.35
2022-11-03T02:03:10.660Z,996.31
2022-11-03T02:04:10.646Z,996.29
2022-11-03T02:05:10.625Z,996.35
2022-11-03T02:06:10.606Z,996.32
2022-11-03T02:07:10.591Z,996.32
2022-11-03T02:08:10.588Z,996.33
2022-11-03T02:09:10.558Z,996.31
2022-11-03T02:10:10.536Z,996.32
2022-11-03T02:11:10.521Z,996.33
2022-11-03T02:12:10.510Z,996.28
2022-11-03T02:13:10.486Z,996.30
2022-11-03T02:14:10.464Z,996.32
2022-11-03T02:15:10.452Z,996.31
2022-11-03T02:16:10.435Z,996.32
2022-11-03T02:17:10.415Z,996.31
2022-11-03T02:18:10.396Z,996.32
2022-11-03T02:19:10.381Z,996.33
2022-11-03T02:20:10.361Z,996.29
2022-11-03T02:21:10.346Z,996.31
2022-11-03T02:22:10.332Z,996.29
2022-11-03T02:23:10.526Z,996.27
2022-11-03T02:24:10.290Z,996.25
2022-11-03T02:25:10.272Z,996.25
2022-11-03T02:26:10.258Z,996.25
2022-11-03T02:27:10.239Z,996.22
2022-11-03T02:28:10.222Z,996.30
2022-11-03T02:29:10.204Z,996.25
2022-11-03T02:30:10.185Z,996.23
2022-11-03T02:31:10.175Z,996.19
2022-11-03T02:32:10.154Z,996.19
2022-11-03T02:33:10.131Z,996.16
2022-11-03T02:34:10.113Z,996.14
2022-11-03T02:35:10.097Z,996.07
2022-11-03T02:36:10.081Z,996.06
2022-11-03T02:37:10.062Z,996.01
2022-11-03T02:38:10.041Z,996.02
2022-11-03T02:39:10.027Z,996.01
2022-11-03T02:40:10.012Z,995.98
2022-11-03T02:41:09.993Z,995.93
2022-11-03T02:42:09.972Z,995.97
2022-11-03T02:43:09.957Z,995.96
2022-11-03T02:44:09.941Z,995.91
2022-11-03T02:45:13.262Z,995.90
2022-11-03T02:46:09.902Z,995.94
2022-11-03T02:47:09.909Z,995.90
2022-11-03T02:48:09.865Z,995.86
2022-11-03T02:49:09.849Z,995.86
2022-11-03T02:50:09.831Z,995.85
2022-11-03T02:51:09.820Z,995.85
2022-11-03T02:52:09.797Z,995.82
2022-11-03T02:53:09.890Z,995.78
2022-11-03T02:54:09.759Z,995.76
2022-11-03T02:55:09.747Z,995.72
2022-11-03T02:56:09.727Z,995.70
2022-11-03T02:57:09.708Z,995.68
2022-11-03T02:58:09.689Z,995.67
2022-11-03T02:59:09.674Z,995.67
2022-11-03T03:00:09.656Z,995.73
2022-11-03T03:01:09.689Z,995.67
2022-11-03T03:02:09.748Z,995.69
2022-11-03T03:03:09.716Z,995.65
2022-11-03T03:04:09.586Z,995.62
2022-11-03T03:05:09.564Z,995.60
2022-11-03T03:06:09.549Z,995.60
2022-11-03T03:07:09.531Z,995.62
2022-11-03T03:08:09.512Z,995.58
2022-11-03T03:09:09.495Z,995.55
2022-11-03T03:10:09.475Z,995.56
2022-11-03T03:11:09.462Z,995.56
2022-11-03T03:12:09.441Z,995.51
2022-11-03T03:13:09.672Z,995.50
2022-11-03T03:14:09.408Z,995.47
2022-11-03T03:15:09.392Z,995.44
2022-11-03T03:16:09.379Z,995.49
2022-11-03T03:17:09.350Z,995.51
2022-11-03T03:18:09.333Z,995.49
2022-11-03T03:19:09.318Z,995.51
2022-11-03T03:20:09.297Z,995.55
2022-11-03T03:21:09.280Z,995.48
2022-11-03T03:22:09.264Z,995.49
2022-11-03T03:23:11.793Z,995.48
2022-11-03T03:24:09.233Z,995.45
2022-11-03T03:25:09.211Z,995.44
2022-11-03T03:26:09.189Z,995.47
2022-11-03T03:27:09.199Z,995.45
2022-11-03T03:28:09.155Z,995.47
2022-11-03T03:29:09.139Z,995.42
2022-11-03T03:30:09.117Z,995.44
2022-11-03T03:31:09.104Z,995.38
2022-11-03T03:32:09.088Z,995.34
2022-11-03T03:33:09.494Z,995.34
2022-11-03T03:34:31.577Z,995.29
2022-11-03T03:35:09.032Z,995.24
2022-11-03T03:36:09.013Z,995.23
2022-11-03T03:37:09.001Z,995.23
2022-11-03T03:38:09.223Z,995.23
2022-11-03T03:39:08.963Z,995.27
2022-11-03T03:40:08.939Z,995.23
2022-11-03T03:41:10.816Z,995.18
2022-11-03T03:42:08.905Z,995.24
2022-11-03T03:43:08.888Z,995.21
2022-11-03T03:44:08.871Z,995.20
2022-11-03T03:45:08.852Z,995.20
2022-11-03T03:46:08.833Z,995.17
2022-11-03T03:47:08.822Z,995.15
2022-11-03T03:48:08.996Z,995.18
2022-11-03T03:49:08.780Z,995.16
2022-11-03T03:50:08.762Z,995.12
2022-11-03T03:51:08.746Z,995.12
2022-11-03T03:52:08.726Z,995.13
2022-11-03T03:53:08.707Z,995.14
2022-11-03T03:54:08.709Z,995.11
2022-11-03T03:55:08.672Z,995.12
2022-11-03T03:56:08.653Z,995.11
2022-11-03T03:57:08.640Z,995.08
2022-11-03T03:58:09.132Z,995.06
2022-11-03T03:59:08.599Z,995.04
2022-11-03T04:00:08.584Z,995.05
2022-11-03T04:01:08.592Z,995.02
2022-11-03T04:02:08.661Z,995.01
2022-11-03T04:03:08.529Z,994.99
2022-11-03T04:04:08.519Z,994.94
2022-11-03T04:05:08.493Z,994.92
2022-11-03T04:06:08.473Z,994.93
2022-11-03T04:07:08.456Z,994.89
2022-11-03T04:08:08.810Z,994.91
2022-11-03T04:09:08.420Z,994.88
2022-11-03T04:10:08.403Z,994.92
2022-11-03T04:11:08.384Z,994.95
2022-11-03T04:12:08.368Z,994.92
2022-11-03T04:13:08.359Z,994.98
2022-11-03T04:14:08.343Z,994.91
2022-11-03T04:15:08.314Z,994.91
2022-11-03T04:16:08.297Z,994.91
2022-11-03T04:17:08.277Z,994.93
2022-11-03T04:18:08.580Z,994.83
2022-11-03T04:19:08.245Z,994.83
2022-11-03T04:20:08.230Z,994.86
2022-11-03T04:21:08.210Z,994.86
2022-11-03T04:22:08.190Z,994.85
2022-11-03T04:23:08.173Z,994.89
2022-11-03T04:24:08.154Z,994.88
2022-11-03T04:25:08.135Z,994.88
2022-11-03T04:26:08.119Z,994.87
2022-11-03T04:27:08.106Z,994.86
2022-11-03T04:28:08.324Z,994.84
2022-11-03T04:29:08.063Z,994.83
2022-11-03T04:30:08.045Z,994.78
2022-11-03T04:31:08.033Z,994.83
2022-11-03T04:32:08.028Z,994.78
2022-11-03T04:33:07.993Z,994.79
2022-11-03T04:34:07.980Z,994.76
2022-11-03T04:35:07.958Z,994.73
2022-11-03T04:36:07.951Z,994.71
2022-11-03T04:37:07.924Z,994.70
2022-11-03T04:38:08.175Z,994.70
2022-11-03T04:39:07.890Z,994.68
2022-11-03T04:40:07.870Z,994.67
2022-11-03T04:41:07.868Z,994.66
2022-11-03T04:42:07.835Z,994.65
2022-11-03T04:43:08.210Z,994.61
2022-11-03T04:44:07.797Z,994.60
2022-11-03T04:45:07.779Z,994.61
2022-11-03T04:46:07.792Z,994.62
2022-11-03T04:47:07.745Z,994.57
2022-11-03T04:48:07.727Z,994.53
2022-11-03T04:49:07.710Z,994.54
2022-11-03T04:50:07.699Z,994.47
2022-11-03T04:51:07.679Z,994.52
2022-11-03T04:52:07.734Z,994.50
2022-11-03T04:53:07.931Z,994.52
2022-11-03T04:54:07.625Z,994.49
2022-11-03T04:55:07.627Z,994.44
2022-11-03T04:56:07.674Z,994.45
2022-11-03T04:57:07.568Z,994.49
2022-11-03T04:58:07.549Z,994.47
2022-11-03T04:59:08.834Z,994.46
2022-11-03T05:00:07.520Z,994.43
2022-11-03T05:01:07.557Z,994.45
2022-11-03T05:02:07.558Z,994.45
2022-11-03T05:03:07.797Z,994.40
2022-11-03T05:04:07.442Z,994.45
2022-11-03T05:05:07.428Z,994.37
2022-11-03T05:06:07.414Z,994.37
2022-11-03T05:07:07.392Z,994.37
2022-11-03T05:08:07.374Z,994.30
2022-11-03T05:09:07.358Z,994.31
2022-11-03T05:10:07.335Z,994.33
2022-11-03T05:11:07.323Z,994.25
2022-11-03T05:12:07.302Z,994.28
2022-11-03T05:13:07.602Z,994.25
2022-11-03T05:14:07.265Z,994.26
2022-11-03T05:15:07.248Z,994.26
2022-11-03T05:16:07.230Z,994.16
2022-11-03T05:17:07.214Z,994.18
2022-11-03T05:18:07.193Z,994.19
2022-11-03T05:19:07.182Z,994.14
2022-11-03T05:20:07.157Z,994.11
2022-11-03T05:21:07.142Z,994.14
2022-11-03T05:22:07.124Z,994.13
2022-11-03T05:23:07.496Z,994.17
2022-11-03T05:24:07.159Z,994.18
2022-11-03T05:25:07.071Z,994.13
2022-11-03T05:26:07.057Z,994.17
2022-11-03T05:27:07.038Z,994.14
2022-11-03T05:28:07.272Z,994.18
2022-11-03T05:29:06.999Z,994.14
2022-11-03T05:30:06.981Z,994.14
2022-11-03T05:31:06.965Z,994.12
2022-11-03T05:32:06.968Z,994.12
2022-11-03T05:33:06.930Z,994.10
2022-11-03T05:34:06.910Z,994.08
2022-11-03T05:35:06.893Z,994.05
2022-11-03T05:36:06.877Z,994.04
2022-11-03T05:37:06.857Z,994.00
2022-11-03T05:38:07.155Z,994.03
2022-11-03T05:39:06.823Z,993.98
2022-11-03T05:40:06.805Z,993.94
2022-11-03T05:41:06.788Z,994.00
2022-11-03T05:42:06.770Z,993.95
2022-11-03T05:43:11.985Z,993.94
2022-11-03T05:44:06.734Z,993.92
2022-11-03T05:45:06.721Z,993.92
2022-11-03T05:47:08.360Z,993.87
2022-11-03T05:48:06.997Z,993.85
2022-11-03T05:49:06.647Z,993.87
2022-11-03T05:50:06.625Z,993.78
2022-11-03T05:51:06.609Z,993.81
2022-11-03T05:52:06.593Z,993.76
2022-11-03T05:53:06.572Z,993.81
2022-11-03T05:54:06.555Z,993.77
2022-11-03T05:55:06.536Z,993.76
2022-11-03T05:56:06.524Z,993.74
2022-11-03T05:57:06.500Z,993.76
2022-11-03T05:58:06.659Z,993.77
2022-11-03T05:59:06.465Z,993.77
2022-11-03T06:00:06.453Z,993.81
2022-11-03T06:01:06.430Z,993.78
2022-11-03T06:02:06.506Z,993.80
2022-11-03T06:03:06.397Z,993.82
2022-11-03T06:04:06.378Z,993.80
2022-11-03T06:05:06.366Z,993.81
2022-11-03T06:06:06.340Z,993.80
2022-11-03T06:07:06.320Z,993.78
2022-11-03T06:08:06.708Z,993.77
2022-11-03T06:09:06.287Z,993.78
2022-11-03T06:10:06.269Z,993.71
2022-11-03T06:11:06.250Z,993.75
2022-11-03T06:12:06.235Z,993.77
2022-11-03T06:13:06.467Z,993.68
2022-11-03T06:14:06.199Z,993.73
2022-11-03T06:15:06.180Z,993.71
2022-11-03T06:16:06.168Z,993.69
2022-11-03T06:17:06.188Z,993.73
2022-11-03T06:18:06.127Z,993.69
2022-11-03T06:19:06.108Z,993.64
2022-11-03T06:20:06.097Z,993.64
2022-11-03T06:21:06.073Z,993.67
2022-11-03T06:22:06.055Z,993.63
2022-11-03T06:23:06.404Z,993.62
2022-11-03T06:24:06.022Z,993.63
2022-11-03T06:25:06.002Z,993.57
2022-11-03T06:26:05.984Z,993.53
2022-11-03T06:27:05.964Z,993.54
2022-11-03T06:28:05.951Z,993.50
2022-11-03T06:29:05.929Z,993.46
2022-11-03T06:30:05.913Z,993.47
2022-11-03T06:31:05.893Z,993.45
2022-11-03T06:32:05.876Z,993.45
2022-11-03T06:33:06.245Z,993.42
2022-11-03T06:34:05.839Z,993.41
2022-11-03T06:35:05.856Z,993.42
2022-11-03T06:36:05.807Z,993.41
2022-11-03T06:37:10.813Z,993.41
2022-11-03T06:38:05.768Z,993.41
2022-11-03T06:39:05.749Z,993.36
2022-11-03T06:40:05.733Z,993.40
2022-11-03T06:41:05.716Z,993.33
2022-11-03T06:42:05.713Z,993.35
2022-11-03T06:43:05.813Z,993.31
2022-11-03T06:44:05.661Z,993.30
2022-11-03T06:45:05.644Z,993.30
2022-11-03T06:46:05.625Z,993.34
2022-11-03T06:47:05.610Z,993.35
2022-11-03T06:48:05.591Z,993.33
2022-11-03T06:49:05.577Z,993.36
2022-11-03T06:50:05.558Z,993.34
2022-11-03T06:51:05.535Z,993.33
2022-11-03T06:52:05.520Z,993.35
2022-11-03T06:53:05.952Z,993.33
2022-11-03T06:54:05.488Z,993.34
2022-11-03T06:55:05.465Z,993.36
2022-11-03T06:56:05.465Z,993.32
2022-11-03T06:57:05.429Z,993.34
2022-11-03T06:58:05.413Z,993.33
2022-11-03T06:59:05.394Z,993.19
2022-11-03T07:00:28.477Z,993.20
2022-11-03T07:01:05.398Z,993.19
2022-11-03T07:02:05.460Z,993.20
2022-11-03T07:03:05.642Z,993.21
2022-11-03T07:04:05.307Z,993.21
2022-11-03T07:05:05.287Z,993.19
2022-11-03T07:06:05.271Z,993.16
2022-11-03T07:07:05.253Z,993.16
2022-11-03T07:08:05.240Z,993.15
2022-11-03T07:09:05.218Z,993.14
2022-11-03T07:10:05.200Z,993.14
2022-11-03T07:11:05.183Z,993.15
2022-11-03T07:12:05.173Z,993.19
2022-11-03T07:13:07.285Z,993.17
2022-11-03T07:14:05.132Z,993.14
2022-11-03T07:16:05.101Z,993.13
2022-11-03T07:17:05.079Z,993.09
2022-11-03T07:18:05.539Z,993.11
2022-11-03T07:19:05.048Z,993.10
2022-11-03T07:20:05.028Z,993.09
2022-11-03T07:21:05.008Z,993.09
2022-11-03T07:22:04.992Z,993.07
2022-11-03T07:23:04.973Z,993.07
2022-11-03T07:24:04.976Z,993.06
2022-11-03T07:25:04.936Z,993.05
2022-11-03T07:26:04.932Z,993.06
2022-11-03T07:27:04.902Z,993.05
2022-11-03T07:28:05.366Z,993.09
2022-11-03T07:29:04.867Z,993.16
2022-11-03T07:30:04.868Z,993.12
2022-11-03T07:31:04.835Z,993.15
2022-11-03T07:32:04.818Z,993.11
2022-11-03T07:33:04.797Z,993.12
2022-11-03T07:34:04.782Z,993.06
2022-11-03T07:35:04.768Z,993.07
2022-11-03T07:36:20.234Z,993.03
2022-11-03T07:37:04.762Z,993.01
2022-11-03T07:38:05.026Z,992.98
2022-11-03T07:39:04.698Z,992.95
2022-11-03T07:40:04.681Z,992.96
2022-11-03T07:41:04.659Z,992.94
2022-11-03T07:42:04.643Z,992.87
2022-11-03T07:43:04.626Z,992.85
2022-11-03T07:44:04.613Z,992.81
2022-11-03T07:45:04.597Z,992.79
2022-11-03T07:46:04.578Z,992.74
2022-11-03T07:47:04.562Z,992.72
2022-11-03T07:48:04.719Z,992.66
2022-11-03T07:49:04.525Z,992.66
2022-11-03T07:50:04.510Z,992.63
2022-11-03T07:51:04.490Z,992.63
2022-11-03T07:52:04.474Z,992.60
2022-11-03T07:53:04.456Z,992.61
2022-11-03T07:54:04.443Z,992.59
2022-11-03T07:55:04.421Z,992.59
2022-11-03T07:56:04.478Z,992.58
2022-11-03T07:57:04.388Z,992.60
2022-11-03T07:58:04.709Z,992.57
2022-11-03T07:59:04.358Z,992.59
2022-11-03T08:00:07.213Z,992.53
2022-11-03T08:01:04.321Z,992.52
2022-11-03T08:02:04.488Z,992.52
2022-11-03T08:03:04.502Z,992.49
2022-11-03T08:04:04.306Z,992.46
2022-11-03T08:05:04.389Z,992.48
2022-11-03T08:06:06.177Z,992.46
2022-11-03T08:07:04.225Z,992.45
2022-11-03T08:08:04.432Z,992.42
2022-11-03T08:09:04.185Z,992.41
2022-11-03T08:10:04.169Z,992.39
2022-11-03T08:11:04.209Z,992.35
2022-11-03T08:12:04.141Z,992.34
2022-11-03T08:13:04.417Z,992.29
2022-11-03T08:14:04.102Z,992.25
2022-11-03T08:15:04.087Z,992.19
2022-11-03T08:16:04.075Z,992.17
2022-11-03T08:17:04.053Z,992.12
2022-11-03T08:18:04.036Z,992.11
2022-11-03T08:19:04.019Z,992.11
2022-11-03T08:20:04.006Z,992.06
2022-11-03T08:21:03.991Z,992.02
2022-11-03T08:22:03.975Z,991.98
2022-11-03T08:24:11.627Z,991.97
2022-11-03T08:26:08.168Z,992.01
2022-11-03T08:27:08.041Z,991.95
2022-11-03T08:28:08.033Z,991.93
2022-11-03T08:29:08.010Z,991.94
2022-11-03T08:30:07.990Z,991.93
2022-11-03T08:31:12.170Z,991.90
2022-11-03T08:32:07.964Z,991.87
2022-11-03T08:33:08.268Z,991.90
2022-11-03T08:34:07.924Z,991.87
2022-11-03T08:35:07.911Z,991.84
2022-11-03T08:36:07.891Z,991.80
2022-11-03T08:37:07.874Z,991.81
2022-11-03T08:38:08.260Z,991.76
2022-11-03T08:39:07.842Z,991.74
2022-11-03T08:40:07.826Z,991.76
2022-11-03T08:41:07.808Z,991.80
2022-11-03T08:42:07.796Z,991.73
2022-11-03T08:43:07.784Z,991.76
2022-11-03T08:44:07.764Z,991.78
2022-11-03T08:45:07.748Z,991.72
2022-11-03T08:46:15.833Z,991.75
2022-11-03T08:47:07.715Z,991.72
2022-11-03T08:48:08.014Z,991.76
2022-11-03T08:49:07.681Z,991.72
2022-11-03T08:50:07.666Z,991.74
2022-11-03T08:51:07.651Z,991.68
2022-11-03T08:52:07.635Z,991.63
2022-11-03T08:53:07.622Z,991.57
2022-11-03T08:54:07.602Z,991.53
2022-11-03T08:55:07.586Z,991.54
2022-11-03T08:56:10.534Z,991.57
2022-11-03T08:57:07.551Z,991.55
2022-11-03T08:58:07.904Z,991.51
2022-11-03T08:59:07.522Z,991.55
2022-11-03T09:00:07.509Z,991.54
2022-11-03T09:01:07.497Z,991.51
2022-11-03T09:02:07.545Z,991.57
2022-11-03T09:03:07.530Z,991.61
2022-11-03T09:04:07.498Z,991.62
2022-11-03T09:05:07.433Z,991.62
2022-11-03T09:06:07.415Z,991.63
2022-11-03T09:07:07.401Z,991.53
2022-11-03T09:10:26.358Z,991.58
2022-11-03T09:11:07.339Z,991.65
2022-11-03T09:12:07.323Z,991.64
2022-11-03T09:13:07.649Z,991.66
2022-11-03T09:14:07.295Z,991.65
2022-11-03T09:15:07.284Z,991.68
2022-11-03T09:16:07.271Z,991.69
2022-11-03T09:17:07.253Z,991.71
2022-11-03T09:18:07.641Z,991.67
2022-11-03T09:19:07.225Z,991.65
2022-11-03T09:20:07.210Z,991.63
2022-11-03T09:21:07.199Z,991.73
2022-11-03T09:22:07.182Z,991.65
2022-11-03T09:23:07.166Z,991.65
2022-11-03T09:24:07.154Z,991.68
2022-11-03T09:25:07.137Z,991.62
2022-11-03T09:26:07.127Z,991.70
2022-11-03T09:27:07.117Z,991.67
2022-11-03T09:28:07.382Z,991.73
2022-11-03T09:29:07.082Z,991.69
2022-11-03T09:30:13.188Z,991.67
2022-11-03T09:31:07.057Z,991.68
2022-11-03T09:32:07.051Z,991.65
2022-11-03T09:33:07.029Z,991.63
2022-11-03T09:34:07.013Z,991.61
2022-11-03T09:35:06.998Z,991.57
2022-11-03T09:36:06.983Z,991.47
2022-11-03T09:37:06.970Z,991.48
2022-11-03T09:38:07.316Z,991.45
2022-11-03T09:39:06.969Z,991.47
2022-11-03T09:40:06.947Z,991.50
2022-11-03T09:41:18.549Z,991.53
2022-11-03T09:42:06.901Z,991.56
2022-11-03T09:43:07.153Z,991.53
2022-11-03T09:44:06.873Z,991.55
2022-11-03T09:45:06.856Z,991.52
2022-11-03T09:46:06.853Z,991.53
2022-11-03T09:47:06.830Z,991.57
2022-11-03T09:48:07.059Z,991.51
2022-11-03T09:49:06.813Z,991.52
2022-11-03T09:50:06.793Z,991.55
2022-11-03T09:51:06.792Z,991.45
2022-11-03T09:52:06.766Z,991.46
2022-11-03T09:53:07.085Z,991.37
2022-11-03T09:54:06.733Z,991.37
2022-11-03T09:55:06.717Z,991.31
2022-11-03T09:56:06.708Z,991.28
2022-11-03T09:57:06.689Z,991.26
2022-11-03T09:58:06.994Z,991.26
2022-11-03T09:59:06.688Z,991.25
2022-11-03T10:00:06.649Z,991.26
2022-11-03T10:01:06.855Z,991.23
2022-11-03T10:02:06.776Z,991.16
2022-11-03T10:03:06.892Z,991.11
2022-11-03T10:04:06.588Z,991.07
2022-11-03T10:05:11.003Z,991.03
2022-11-03T10:06:09.669Z,991.00
2022-11-03T10:07:06.546Z,990.98
2022-11-03T10:08:06.539Z,990.94
2022-11-03T10:09:06.523Z,990.89
2022-11-03T10:10:06.511Z,990.87
2022-11-03T10:11:06.487Z,990.81
2022-11-03T10:12:06.471Z,990.79
2022-11-03T10:13:06.789Z,990.81
2022-11-03T10:14:06.447Z,990.85
2022-11-03T10:15:06.430Z,990.82
2022-11-03T10:16:06.417Z,990.80
2022-11-03T10:17:06.406Z,990.78
2022-11-03T10:18:06.395Z,990.72
2022-11-03T10:19:06.371Z,990.70
2022-11-03T10:20:06.361Z,990.68
2022-11-03T10:21:06.342Z,990.60
2022-11-03T10:22:06.330Z,990.61
2022-11-03T10:23:06.632Z,990.54
2022-11-03T10:24:06.297Z,990.47
2022-11-03T10:25:06.288Z,990.45
2022-11-03T10:26:06.269Z,990.34
2022-11-03T10:27:06.257Z,990.35
2022-11-03T10:28:10.339Z,990.39
2022-11-03T10:29:06.364Z,990.38
2022-11-03T10:30:06.215Z,990.38
2022-11-03T10:31:13.838Z,990.40
2022-11-03T10:32:06.183Z,990.35
2022-11-03T10:33:06.394Z,990.35
2022-11-03T10:34:06.155Z,990.32
2022-11-03T10:35:06.139Z,990.31
2022-11-03T10:36:06.124Z,990.24
2022-11-03T10:37:06.109Z,990.25
2022-11-03T10:38:06.097Z,990.16
2022-11-03T10:39:06.083Z,990.13
2022-11-03T10:40:07.026Z,990.09
2022-11-03T10:41:06.052Z,990.06
2022-11-03T10:42:06.070Z,990.04
2022-11-03T10:43:06.401Z,989.96
2022-11-03T10:44:06.065Z,989.95
2022-11-03T10:45:05.995Z,989.97
2022-11-03T10:46:08.081Z,989.98
2022-11-03T10:47:05.964Z,989.96
2022-11-03T10:48:05.947Z,989.95
2022-11-03T10:50:05.923Z,989.97
2022-11-03T10:51:05.912Z,989.95
2022-11-03T10:52:05.891Z,990.01
2022-11-03T10:53:06.229Z,990.00
2022-11-03T10:54:05.872Z,989.97
2022-11-03T10:55:05.852Z,989.96
2022-11-03T10:56:05.840Z,989.91
2022-11-03T10:57:05.822Z,989.93
2022-11-03T10:58:06.152Z,989.87
2022-11-03T10:59:05.796Z,989.89
2022-11-03T11:00:05.776Z,989.87
2022-11-03T11:01:05.807Z,989.86
2022-11-03T11:02:05.879Z,989.87
2022-11-03T11:03:06.111Z,989.82
2022-11-03T11:04:05.779Z,989.79
2022-11-03T11:05:05.706Z,989.79
2022-11-03T11:06:05.688Z,989.74
2022-11-03T11:07:05.682Z,989.72
2022-11-03T11:08:05.722Z,989.74
2022-11-03T11:09:05.652Z,989.71
2022-11-03T11:10:05.631Z,989.68
2022-11-03T11:11:05.619Z,989.65
2022-11-03T11:12:05.608Z,989.62
2022-11-03T11:13:05.840Z,989.52
2022-11-03T11:14:05.572Z,989.55
2022-11-03T11:15:05.568Z,989.55
2022-11-03T11:16:05.547Z,989.55
2022-11-03T11:17:05.529Z,989.56
2022-11-03T11:18:05.515Z,989.53
2022-11-03T11:19:05.502Z,989.49
2022-11-03T11:20:05.483Z,989.47
2022-11-03T11:21:05.472Z,989.41
2022-11-03T11:22:05.472Z,989.35
2022-11-03T11:23:06.027Z,989.32
2022-11-03T11:24:05.437Z,989.27
2022-11-03T11:25:05.420Z,989.26
2022-11-03T11:26:05.408Z,989.25
2022-11-03T11:27:05.384Z,989.17
2022-11-03T11:28:05.367Z,989.10
2022-11-03T11:29:05.353Z,989.09
2022-11-03T11:30:05.336Z,989.04
2022-11-03T11:31:05.324Z,989.07
2022-11-03T11:32:05.308Z,989.02
2022-11-03T11:33:05.557Z,989.03
2022-11-03T11:34:05.276Z,989.02
2022-11-03T11:35:05.284Z,989.03
2022-11-03T11:36:05.249Z,989.02
2022-11-03T11:37:05.233Z,989.00
2022-11-03T11:38:05.218Z,988.97
2022-11-03T11:39:05.207Z,988.94
2022-11-03T11:40:05.189Z,988.92
2022-11-03T11:41:05.175Z,988.93
2022-11-03T11:42:05.207Z,988.91
2022-11-03T11:43:05.569Z,988.91
2022-11-03T11:44:05.129Z,988.91
2022-11-03T11:45:05.122Z,988.96
2022-11-03T11:46:05.096Z,988.87
2022-11-03T11:47:05.092Z,988.91
2022-11-03T11:48:05.067Z,988.87
2022-11-03T11:49:05.071Z,988.82
2022-11-03T11:50:05.035Z,988.79
2022-11-03T11:51:05.026Z,988.75
2022-11-03T11:52:05.006Z,988.72
2022-11-03T11:53:05.268Z,988.72
2022-11-03T11:54:17.410Z,988.70
2022-11-03T11:55:04.963Z,988.78
2022-11-03T11:56:04.946Z,988.74
2022-11-03T11:57:04.933Z,988.76
2022-11-03T11:58:04.922Z,988.80
2022-11-03T11:59:04.904Z,988.77
2022-11-03T12:00:04.886Z,988.84
2022-11-03T12:01:04.907Z,988.78
2022-11-03T12:02:04.860Z,988.81
2022-11-03T12:03:05.360Z,988.82
2022-11-03T12:04:04.997Z,988.78
2022-11-03T12:05:04.835Z,988.76
2022-11-03T12:06:04.798Z,988.72
2022-11-03T12:07:04.781Z,988.77
2022-11-03T12:08:05.096Z,988.74
2022-11-03T12:09:04.757Z,988.73
2022-11-03T12:10:04.760Z,988.74
2022-11-03T12:11:04.829Z,988.77
2022-11-03T12:12:08.528Z,988.76
2022-11-03T12:13:04.691Z,988.75
2022-11-03T12:14:04.680Z,988.71
2022-11-03T12:15:04.662Z,988.73
2022-11-03T12:16:04.648Z,988.76
2022-11-03T12:17:04.632Z,988.75
2022-11-03T12:18:05.003Z,988.74
2022-11-03T12:19:04.606Z,988.66
2022-11-03T12:20:04.625Z,988.64
2022-11-03T12:21:04.577Z,988.57
2022-11-03T12:22:04.556Z,988.59
2022-11-03T12:23:04.541Z,988.56
2022-11-03T12:24:04.525Z,988.55
2022-11-03T12:25:04.512Z,988.49
2022-11-03T12:26:04.500Z,988.43
2022-11-03T12:27:04.485Z,988.37
2022-11-03T12:28:04.886Z,988.36
2022-11-03T12:29:04.464Z,988.32
2022-11-03T12:30:04.433Z,988.31
2022-11-03T12:31:04.437Z,988.34
2022-11-03T12:32:04.404Z,988.27
2022-11-03T12:33:04.555Z,988.22
2022-11-03T12:34:04.385Z,988.21
2022-11-03T12:35:04.370Z,988.18
2022-11-03T12:36:04.343Z,988.18
2022-11-03T12:37:04.329Z,988.16
2022-11-03T12:38:04.321Z,988.15
2022-11-03T12:39:04.303Z,988.10